Time;durP1;ratioP1;P1;durP2;ratioP2;P2;SDS_P1;SDS_P2;PMS_P1;PMS_P2;Temp;Humidity;BMP_temperature;BMP_pressure;BME280_temperature;BME280_humidity;BME280_pressure;Samples;Min_cycle;Max_cycle;Signal;HPM_P1;HPM_P2
2021/11/29 00:00:17;;;;;;;10.57;9.50;;;;;;;2.19;94.52;98864.28;5094789;28;20204;-78
2021/11/29 00:02:47;;;;;;;11.13;9.83;;;;;;;2.23;94.30;98883.97;5095051;28;20288;-78
2021/11/29 00:05:15;;;;;;;9.80;8.47;;;;;;;2.24;94.21;98907.97;5095099;28;20299;-78
2021/11/29 00:07:41;;;;;;;9.30;8.40;;;;;;;2.36;93.48;98907.88;5095120;28;20281;-78
2021/11/29 00:10:08;;;;;;;9.70;8.70;;;;;;;2.45;93.40;98924.94;5094921;28;20204;-78
2021/11/29 00:12:36;;;;;;;8.20;7.50;;;;;;;2.52;93.67;98934.31;5094048;28;20268;-78
2021/11/29 00:15:03;;;;;;;9.63;7.97;;;;;;;2.54;93.20;98938.59;5087743;28;20208;-78
2021/11/29 00:17:31;;;;;;;7.53;6.83;;;;;;;2.41;93.86;98941.31;5094561;28;20229;-78
2021/11/29 00:19:57;;;;;;;6.57;6.00;;;;;;;2.47;93.18;98938.66;5094832;28;20204;-77
2021/11/29 00:22:23;;;;;;;8.30;7.50;;;;;;;2.43;93.93;98939.56;5094442;28;20229;-77
2021/11/29 00:24:50;;;;;;;7.93;6.40;;;;;;;2.30;94.25;98926.81;5095311;28;20208;-79
2021/11/29 00:27:17;;;;;;;5.80;5.30;;;;;;;2.35;94.67;98917.31;5095029;28;20228;-78
2021/11/29 00:29:44;;;;;;;6.23;5.70;;;;;;;2.24;94.35;98921.72;5095096;28;20290;-79
2021/11/29 00:32:11;;;;;;;6.93;6.30;;;;;;;2.19;95.00;98913.19;5094241;28;20224;-78
2021/11/29 00:34:39;;;;;;;7.00;6.47;;;;;;;2.30;95.55;98895.03;5095000;28;20602;-78
2021/11/29 00:37:06;;;;;;;7.07;6.47;;;;;;;2.47;95.55;98890.56;5095819;28;20262;-79
2021/11/29 00:39:33;;;;;;;9.40;6.23;;;;;;;2.63;94.80;98892.97;5094185;28;20266;-79
2021/11/29 00:42:00;;;;;;;6.97;6.27;;;;;;;2.74;94.94;98896.28;5095004;28;20250;-78
2021/11/29 00:44:27;;;;;;;6.20;5.63;;;;;;;2.83;94.73;98901.31;5086260;28;20548;-77
2021/11/29 00:46:53;;;;;;;6.30;5.70;;;;;;;2.84;93.94;98920.22;5095195;28;20224;-78
2021/11/29 00:49:20;;;;;;;7.03;6.33;;;;;;;2.88;93.82;98943.34;5094794;28;20261;-79
2021/11/29 00:51:48;;;;;;;6.87;5.77;;;;;;;2.92;93.33;98965.63;5093875;28;20792;-77
2021/11/29 00:54:14;;;;;;;6.63;6.00;;;;;;;2.95;92.76;98973.34;5094058;28;20200;-79
2021/11/29 00:56:41;;;;;;;6.83;6.20;;;;;;;2.67;92.87;98982.22;5094097;28;20839;-78
2021/11/29 00:59:08;;;;;;;6.93;6.07;;;;;;;2.34;94.09;98936.22;5094432;28;20207;-78
2021/11/29 01:01:35;;;;;;;7.90;6.27;;;;;;;2.45;94.55;98920.63;5094653;28;20713;-78
2021/11/29 01:04:02;;;;;;;6.70;6.20;;;;;;;2.55;95.00;98906.78;5094035;28;20253;-77
2021/11/29 01:06:28;;;;;;;6.67;6.10;;;;;;;2.62;95.02;98905.00;5093770;28;20269;-79
2021/11/29 01:08:56;;;;;;;7.00;6.10;;;;;;;2.46;95.03;98906.91;5094564;28;20204;-79
2021/11/29 01:11:22;;;;;;;6.17;5.60;;;;;;;2.42;95.17;98888.91;5094117;28;20778;-79
2021/11/29 01:13:49;;;;;;;5.63;5.13;;;;;;;2.34;96.15;98882.16;5082968;28;20204;-78
2021/11/29 01:16:15;;;;;;;5.83;5.33;;;;;;;2.25;96.22;98871.09;5074351;28;20231;-78
2021/11/29 01:18:42;;;;;;;7.03;6.37;;;;;;;2.27;97.04;98856.47;5073852;28;20254;-79
2021/11/29 01:21:08;;;;;;;5.93;5.53;;;;;;;2.27;96.96;98841.03;5073755;28;20213;-78
2021/11/29 01:23:36;;;;;;;5.97;5.47;;;;;;;2.36;97.54;98840.94;5074251;28;20200;-79
2021/11/29 01:26:04;;;;;;;6.40;5.30;;;;;;;2.23;96.73;98841.94;5074536;28;20200;-79
2021/11/29 01:28:31;;;;;;;5.43;4.93;;;;;;;2.16;97.50;98838.56;5074034;28;20209;-78
2021/11/29 01:30:57;;;;;;;6.10;5.40;;;;;;;2.20;97.45;98850.56;5074161;28;20258;-78
2021/11/29 01:33:24;;;;;;;5.33;4.93;;;;;;;2.28;97.12;98838.44;5075894;28;20224;-79
2021/11/29 01:35:50;;;;;;;6.60;6.00;;;;;;;2.08;98.01;98842.94;5080978;28;20200;-78
2021/11/29 01:38:17;;;;;;;6.23;5.73;;;;;;;2.00;98.68;98819.84;5076573;28;20233;-78
2021/11/29 01:40:43;;;;;;;6.23;5.73;;;;;;;2.11;98.29;98809.47;5081113;28;20209;-77
2021/11/29 01:43:14;;;;;;;6.40;5.80;;;;;;;2.06;98.30;98813.78;5092079;28;20278;-78
2021/11/29 01:45:42;;;;;;;5.67;5.27;;;;;;;1.95;97.98;98826.78;5097613;28;20203;-78
2021/11/29 01:48:09;;;;;;;5.77;5.03;;;;;;;1.91;98.66;98823.38;5099917;28;20281;-79
2021/11/29 01:50:37;;;;;;;5.30;4.90;;;;;;;1.92;98.91;98816.50;5101475;28;20225;-78
2021/11/29 01:53:05;;;;;;;6.00;5.53;;;;;;;1.97;98.48;98814.75;5101667;28;20228;-78
2021/11/29 01:55:31;;;;;;;5.23;4.73;;;;;;;1.93;98.84;98808.78;5101343;28;20265;-79
2021/11/29 01:57:59;;;;;;;5.63;5.10;;;;;;;1.84;98.76;98808.88;5101269;28;20702;-78
2021/11/29 02:00:34;;;;;;;5.43;4.93;;;;;;;1.69;99.50;98794.47;5101082;28;20261;-78
2021/11/29 02:03:01;;;;;;;5.93;5.43;;;;;;;1.62;99.35;98782.50;5099721;28;20249;-77
2021/11/29 02:05:28;;;;;;;6.00;5.50;;;;;;;1.64;99.88;98779.94;5102191;28;20204;-77
2021/11/29 02:07:55;;;;;;;6.20;5.47;;;;;;;1.67;100.00;98778.19;5100875;28;20771;-78
2021/11/29 02:10:24;;;;;;;7.13;6.43;;;;;;;1.69;100.00;98775.59;5100762;28;20204;-77
2021/11/29 02:12:51;;;;;;;6.80;6.20;;;;;;;1.71;100.00;98773.88;5096200;28;20235;-78
2021/11/29 02:15:18;;;;;;;6.37;5.77;;;;;;;1.67;100.00;98782.50;5095413;28;20257;-77
2021/11/29 02:17:47;;;;;;;6.27;5.67;;;;;;;1.78;100.00;98778.94;5100526;28;20212;-77
2021/11/29 02:20:15;;;;;;;6.47;5.97;;;;;;;1.90;100.00;98785.69;5097007;28;20204;-77
2021/11/29 02:22:44;;;;;;;6.57;6.00;;;;;;;2.02;100.00;98791.53;5101192;28;20738;-78
2021/11/29 02:25:11;;;;;;;6.10;5.50;;;;;;;2.10;99.70;98802.59;5101430;28;20232;-77
2021/11/29 02:27:39;;;;;;;6.40;5.90;;;;;;;2.09;99.49;98814.63;5103218;28;20230;-77
2021/11/29 02:30:06;;;;;;;6.73;6.13;;;;;;;1.80;99.71;98814.91;5101652;28;20250;-78
2021/11/29 02:32:33;;;;;;;7.83;7.10;;;;;;;1.70;100.00;98801.28;5100003;28;20220;-78
2021/11/29 02:35:00;;;;;;;7.77;7.07;;;;;;;1.55;100.00;98788.59;5108141;28;20203;-78
2021/11/29 02:37:26;;;;;;;8.17;7.47;;;;;;;1.65;100.00;98773.94;5108933;28;20201;-78
2021/11/29 02:39:54;;;;;;;9.80;8.00;;;;;;;1.65;100.00;98776.50;5097688;28;20207;-78
2021/11/29 02:42:20;;;;;;;7.60;6.90;;;;;;;1.58;100.00;98775.69;5094131;28;20278;-78
2021/11/29 02:44:47;;;;;;;9.17;8.37;;;;;;;1.49;100.00;98763.78;5085336;28;20200;-78
2021/11/29 02:47:13;;;;;;;8.20;7.50;;;;;;;1.50;100.00;98755.19;5093196;28;20246;-78
2021/11/29 02:49:40;;;;;;;8.10;7.40;;;;;;;1.52;100.00;98755.19;5093740;28;20204;-77
2021/11/29 02:52:09;;;;;;;8.20;7.50;;;;;;;1.52;100.00;98757.75;5093333;28;20368;-78
2021/11/29 02:54:39;;;;;;;8.07;7.37;;;;;;;1.56;100.00;98756.84;5093259;28;20225;-78
2021/11/29 02:57:09;;;;;;;8.10;7.40;;;;;;;1.61;100.00;98762.81;5093430;28;20735;-78
2021/11/29 02:59:40;;;;;;;8.00;7.40;;;;;;;1.58;100.00;98768.81;5095347;28;20208;-78
2021/11/29 03:02:09;;;;;;;7.33;6.67;;;;;;;1.53;100.00;98768.03;5092823;28;20242;-77
2021/11/29 03:04:36;;;;;;;7.43;6.83;;;;;;;1.59;100.00;98765.41;5091903;28;20208;-77
2021/11/29 03:07:04;;;;;;;7.93;7.23;;;;;;;1.61;100.00;98772.25;5092649;28;20775;-77
2021/11/29 03:09:32;;;;;;;7.27;6.67;;;;;;;1.67;100.00;98774.78;5092016;28;20230;-77
2021/11/29 03:11:58;;;;;;;7.60;6.87;;;;;;;1.67;100.00;98773.03;5091456;28;20293;-76
2021/11/29 03:14:27;;;;;;;7.60;6.90;;;;;;;1.61;100.00;98779.97;5087080;28;20197;-77
2021/11/29 03:16:55;;;;;;;8.03;7.27;;;;;;;1.61;100.00;98777.41;5072556;28;20228;-78
2021/11/29 03:19:22;;;;;;;8.30;7.50;;;;;;;1.60;100.00;98776.53;5072163;28;20262;-77
2021/11/29 03:21:48;;;;;;;8.20;7.50;;;;;;;1.72;100.00;98771.25;5071726;28;20303;-78
2021/11/29 03:24:15;;;;;;;8.53;7.83;;;;;;;1.72;100.00;98773.84;5071599;28;20220;-77
2021/11/29 03:26:42;;;;;;;7.67;7.00;;;;;;;1.76;100.00;98783.25;5072971;28;20258;-78
2021/11/29 03:29:12;;;;;;;7.87;7.17;;;;;;;1.70;100.00;98788.44;5073709;28;20197;-78
2021/11/29 03:31:41;;;;;;;7.87;7.27;;;;;;;1.67;100.00;98787.63;5072820;28;20298;-79
2021/11/29 03:34:12;;;;;;;7.93;7.33;;;;;;;1.61;100.00;98790.25;5073084;28;20200;-78
2021/11/29 03:36:40;;;;;;;8.23;7.53;;;;;;;1.59;100.00;98783.41;5072687;28;20657;-78
2021/11/29 03:39:09;;;;;;;9.03;8.00;;;;;;;1.59;100.00;98774.84;5072992;28;20610;-79
2021/11/29 03:41:35;;;;;;;7.13;6.53;;;;;;;1.57;100.00;98784.28;5076644;28;20272;-78
2021/11/29 03:44:04;;;;;;;6.03;5.53;;;;;;;1.67;100.00;98785.91;5084439;28;20641;-77
2021/11/29 03:46:31;;;;;;;5.03;4.40;;;;;;;1.67;100.00;98792.78;5093474;28;20410;-78
2021/11/29 03:48:58;;;;;;;7.17;4.60;;;;;;;1.70;100.00;98803.84;5093197;28;20283;-79
2021/11/29 03:51:25;;;;;;;5.13;4.73;;;;;;;1.72;100.00;98811.56;5093728;28;20722;-79
2021/11/29 03:53:53;;;;;;;5.43;5.03;;;;;;;1.70;100.00;98815.88;5096159;28;20251;-77
2021/11/29 03:56:20;;;;;;;6.07;5.57;;;;;;;1.73;100.00;98813.28;5096525;28;20219;-78
2021/11/29 03:58:46;;;;;;;6.33;5.83;;;;;;;1.77;100.00;98808.09;5096780;28;20200;-78
2021/11/29 04:01:13;;;;;;;6.80;6.10;;;;;;;1.78;100.00;98806.38;5097310;28;20257;-78
2021/11/29 04:03:39;;;;;;;6.63;6.13;;;;;;;1.85;100.00;98814.88;5096328;28;20741;-78
2021/11/29 04:06:07;;;;;;;7.03;6.53;;;;;;;1.90;100.00;98821.69;5096632;28;20205;-79
2021/11/29 04:08:33;;;;;;;6.53;6.03;;;;;;;1.86;100.00;98827.72;5096100;28;20223;-78
2021/11/29 04:11:00;;;;;;;6.70;6.10;;;;;;;1.93;100.00;98834.50;5096573;28;20208;-79
2021/11/29 04:13:26;;;;;;;7.63;7.03;;;;;;;1.80;100.00;98845.78;5088163;28;20228;-79
2021/11/29 04:15:52;;;;;;;7.73;7.13;;;;;;;1.73;100.00;98851.88;5095502;28;20279;-79
2021/11/29 04:18:19;;;;;;;8.53;7.83;;;;;;;1.64;100.00;98845.06;5095754;28;20207;-78
2021/11/29 04:20:45;;;;;;;9.10;8.20;;;;;;;1.61;100.00;98841.69;5095740;28;20262;-77
2021/11/29 04:23:13;;;;;;;9.30;8.60;;;;;;;1.60;100.00;98835.69;5095352;28;20220;-78
2021/11/29 04:25:45;;;;;;;10.40;8.83;;;;;;;1.77;100.00;98832.97;5096168;28;20208;-78
2021/11/29 04:28:12;;;;;;;7.97;7.20;;;;;;;1.70;100.00;98842.44;5095984;28;20226;-78
2021/11/29 04:30:39;;;;;;;6.67;6.17;;;;;;;1.64;100.00;98860.50;5095628;28;20204;-79
2021/11/29 04:33:05;;;;;;;6.50;6.00;;;;;;;1.54;100.00;98877.72;5096007;28;20260;-77
2021/11/29 04:35:32;;;;;;;7.53;6.93;;;;;;;1.53;100.00;98865.75;5096407;28;20671;-78
2021/11/29 04:37:58;;;;;;;7.17;6.47;;;;;;;1.51;100.00;98859.75;5095125;28;20250;-77
2021/11/29 04:40:26;;;;;;;6.83;6.33;;;;;;;1.58;100.00;98873.41;5096313;28;20261;-78
2021/11/29 04:42:52;;;;;;;6.50;5.97;;;;;;;1.50;100.00;98870.91;5092034;28;20806;-78
2021/11/29 04:45:19;;;;;;;6.33;5.83;;;;;;;1.53;100.00;98868.31;5090218;28;20618;-78
2021/11/29 04:47:45;;;;;;;6.63;6.07;;;;;;;1.57;100.00;98871.72;5095217;28;20289;-78
2021/11/29 04:50:12;;;;;;;6.90;6.30;;;;;;;1.52;100.00;98876.88;5095995;28;20258;-78
2021/11/29 04:52:38;;;;;;;8.10;7.27;;;;;;;1.61;100.00;98875.97;5095469;28;20223;-78
2021/11/29 04:55:06;;;;;;;8.57;7.50;;;;;;;1.76;100.00;98867.25;5097118;28;20200;-79
2021/11/29 04:57:34;;;;;;;8.13;7.43;;;;;;;1.70;100.00;98883.59;5096190;28;20250;-78
2021/11/29 05:00:00;;;;;;;8.33;7.43;;;;;;;1.74;100.00;98887.00;5095595;28;20204;-78
2021/11/29 05:02:27;;;;;;;7.60;7.00;;;;;;;1.70;100.00;98890.47;5094309;28;20224;-78
2021/11/29 05:04:53;;;;;;;8.30;7.50;;;;;;;1.56;100.00;98891.41;5095322;28;20253;-78
2021/11/29 05:07:20;;;;;;;8.30;7.50;;;;;;;1.57;100.00;98885.44;5095525;28;20224;-78
2021/11/29 05:09:46;;;;;;;8.10;7.47;;;;;;;1.55;100.00;98886.31;5094471;28;20230;-77
2021/11/29 05:12:15;;;;;;;7.80;7.10;;;;;;;1.55;100.00;98882.00;5094223;28;20737;-78
2021/11/29 05:14:44;;;;;;;7.13;6.47;;;;;;;1.55;100.00;98887.16;5086213;28;20242;-78
2021/11/29 05:17:10;;;;;;;7.17;6.47;;;;;;;1.73;100.00;98890.44;5095022;28;20629;-79
2021/11/29 05:19:36;;;;;;;5.80;5.30;;;;;;;1.82;100.00;98892.09;5095079;28;20208;-78
2021/11/29 05:22:03;;;;;;;5.67;5.17;;;;;;;1.88;100.00;98902.31;5094445;28;20228;-79
2021/11/29 05:24:30;;;;;;;5.30;4.83;;;;;;;1.89;100.00;98933.19;5095631;28;20208;-78
2021/11/29 05:26:56;;;;;;;5.10;4.70;;;;;;;1.90;100.00;98954.63;5094486;28;20257;-78
2021/11/29 05:29:23;;;;;;;5.17;4.63;;;;;;;1.84;99.70;98980.38;5094498;28;20762;-78
2021/11/29 05:31:51;;;;;;;5.30;4.77;;;;;;;1.90;99.40;98988.94;5094168;28;20223;-79
2021/11/29 05:34:18;;;;;;;6.47;5.13;;;;;;;1.88;99.32;99006.06;5095161;28;20204;-78
2021/11/29 05:36:44;;;;;;;6.23;5.00;;;;;;;1.83;99.65;99015.56;5094882;28;20204;-78
2021/11/29 05:39:13;;;;;;;5.67;4.83;;;;;;;1.83;99.41;99012.16;5095971;28;20200;-77
2021/11/29 05:41:40;;;;;;;5.93;5.43;;;;;;;1.82;99.61;99016.41;5094217;28;20267;-76
2021/11/29 05:44:06;;;;;;;6.00;5.40;;;;;;;1.89;99.14;99024.97;5081765;28;20205;-78
2021/11/29 05:46:33;;;;;;;7.13;5.30;;;;;;;1.88;99.12;99029.22;5074453;28;20205;-78
2021/11/29 05:49:01;;;;;;;7.73;5.67;;;;;;;1.91;98.80;99041.25;5074243;28;20270;-78
2021/11/29 05:51:28;;;;;;;6.97;6.07;;;;;;;1.88;98.83;99043.81;5075099;28;20271;-78
2021/11/29 05:53:55;;;;;;;5.80;5.23;;;;;;;1.83;99.02;99050.72;5072983;28;20227;-77
2021/11/29 05:56:22;;;;;;;6.60;5.87;;;;;;;1.69;99.62;99045.66;5073265;28;20597;-77
2021/11/29 05:58:48;;;;;;;13.23;6.50;;;;;;;1.57;99.86;99036.31;5072574;28;20215;-78
2021/11/29 06:01:15;;;;;;;7.10;6.43;;;;;;;1.47;99.77;99025.22;5072345;28;20250;-76
2021/11/29 06:03:44;;;;;;;7.17;6.33;;;;;;;1.38;100.00;99005.53;5072967;28;20200;-78
2021/11/29 06:06:11;;;;;;;7.63;6.93;;;;;;;1.43;100.00;98995.22;5073624;28;20241;-77
2021/11/29 06:08:38;;;;;;;8.07;6.63;;;;;;;1.45;100.00;98998.66;5072924;28;20239;-78
2021/11/29 06:11:04;;;;;;;7.63;6.93;;;;;;;1.54;100.00;98998.56;5073478;28;20230;-78
2021/11/29 06:13:30;;;;;;;6.73;6.23;;;;;;;1.50;100.00;99008.91;5084783;28;20796;-78
2021/11/29 06:15:57;;;;;;;7.60;6.90;;;;;;;1.50;100.00;99011.47;5075048;28;20675;-79
2021/11/29 06:18:23;;;;;;;8.43;7.10;;;;;;;1.48;100.00;99015.78;5075471;28;20197;-79
2021/11/29 06:20:50;;;;;;;10.30;6.73;;;;;;;1.47;100.00;99009.78;5075605;28;20363;-77
2021/11/29 06:23:17;;;;;;;9.40;6.87;;;;;;;1.42;100.00;99015.81;5073515;28;20432;-79
2021/11/29 06:25:44;;;;;;;7.97;7.17;;;;;;;1.42;100.00;99013.22;5078016;28;20212;-79
2021/11/29 06:28:11;;;;;;;7.53;6.57;;;;;;;1.44;100.00;99011.50;5085088;28;20216;-79
2021/11/29 06:30:38;;;;;;;10.73;7.60;;;;;;;1.45;100.00;99013.19;5082643;28;20247;-78
2021/11/29 06:33:04;;;;;;;9.33;8.13;;;;;;;1.45;100.00;99018.34;5083830;28;20216;-77
2021/11/29 06:35:31;;;;;;;8.00;7.20;;;;;;;1.43;100.00;99020.94;5083511;28;20197;-80
2021/11/29 06:38:00;;;;;;;8.67;7.70;;;;;;;1.39;100.00;99016.69;5082232;28;20197;-79
2021/11/29 06:40:29;;;;;;;8.20;7.40;;;;;;;1.48;100.00;99016.63;5083438;28;20200;-78
2021/11/29 06:42:56;;;;;;;8.57;7.77;;;;;;;1.46;100.00;99018.34;5086437;28;20227;-78
2021/11/29 06:45:23;;;;;;;7.90;7.10;;;;;;;1.52;100.00;99028.59;5083813;28;20192;-77
2021/11/29 06:47:50;;;;;;;9.87;7.50;;;;;;;1.55;100.00;99031.16;5084791;28;20254;-78
2021/11/29 06:50:17;;;;;;;8.33;7.53;;;;;;;1.59;100.00;99039.72;5081204;28;20530;-77
2021/11/29 06:52:44;;;;;;;8.67;7.90;;;;;;;1.61;100.00;99044.84;5082158;28;20219;-78
2021/11/29 06:55:14;;;;;;;10.47;9.50;;;;;;;1.53;100.00;99057.75;5083603;28;20230;-78
2021/11/29 06:57:42;;;;;;;8.57;7.63;;;;;;;1.55;100.00;99056.88;5081124;28;20205;-77
2021/11/29 07:00:10;;;;;;;9.43;8.63;;;;;;;1.48;100.00;99051.75;5081673;28;20222;-79
2021/11/29 07:02:39;;;;;;;9.50;8.70;;;;;;;1.45;100.00;99050.06;5081135;28;20278;-77
2021/11/29 07:05:07;;;;;;;9.03;8.13;;;;;;;1.53;100.00;99042.31;5082213;28;20203;-76
2021/11/29 07:07:34;;;;;;;9.73;8.73;;;;;;;1.47;100.00;99043.19;5083028;28;20202;-80
2021/11/29 07:10:00;;;;;;;8.77;8.07;;;;;;;1.54;100.00;99044.03;5082510;28;20595;-77
2021/11/29 07:12:27;;;;;;;9.27;8.37;;;;;;;1.48;100.00;99046.63;5081452;28;20235;-77
2021/11/29 07:14:55;;;;;;;8.60;7.80;;;;;;;1.46;100.00;99061.19;5081611;28;20193;-78
2021/11/29 07:17:21;;;;;;;10.83;9.83;;;;;;;1.44;100.00;99053.50;5082690;28;20200;-78
2021/11/29 07:19:52;;;;;;;10.10;8.83;;;;;;;1.45;100.00;99050.06;5084773;28;20254;-78
2021/11/29 07:22:20;;;;;;;11.47;9.30;;;;;;;1.42;100.00;99052.63;5080679;28;20595;-77
2021/11/29 07:24:47;;;;;;;10.37;9.47;;;;;;;1.38;100.00;99054.38;5081636;28;20234;-78
2021/11/29 07:27:13;;;;;;;10.27;9.47;;;;;;;1.46;100.00;99050.91;5086092;28;20207;-79
2021/11/29 07:29:40;;;;;;;9.63;8.73;;;;;;;1.44;100.00;99055.22;5085101;28;20592;-78
2021/11/29 07:32:08;;;;;;;10.00;9.20;;;;;;;1.41;100.00;99055.22;5086372;28;20369;-77
2021/11/29 07:34:35;;;;;;;10.80;9.80;;;;;;;1.43;100.00;99064.66;5083352;28;20663;-78
2021/11/29 07:37:01;;;;;;;10.10;9.20;;;;;;;1.51;100.00;99073.19;5085831;28;20196;-78
2021/11/29 07:39:27;;;;;;;9.47;8.63;;;;;;;1.58;100.00;99081.72;5085130;28;20251;-78
2021/11/29 07:41:55;;;;;;;8.97;8.07;;;;;;;1.50;100.00;99092.03;5087102;28;20217;-78
2021/11/29 07:44:22;;;;;;;9.07;8.33;;;;;;;1.42;100.00;99098.06;5085991;28;20284;-77
2021/11/29 07:46:48;;;;;;;9.47;8.70;;;;;;;1.31;100.00;99095.53;5085821;28;20197;-78
2021/11/29 07:49:16;;;;;;;10.07;9.17;;;;;;;1.21;100.00;99097.28;5086130;28;20223;-77
2021/11/29 07:51:42;;;;;;;9.50;8.67;;;;;;;1.19;100.00;99088.72;5086746;28;20218;-77
2021/11/29 07:54:09;;;;;;;11.13;10.07;;;;;;;1.27;100.00;99088.69;5086558;28;20238;-78
2021/11/29 07:56:35;;;;;;;9.83;8.93;;;;;;;1.24;100.00;99089.56;5084924;28;20192;-78
2021/11/29 07:59:02;;;;;;;13.20;12.10;;;;;;;1.27;100.00;99096.38;5086449;28;20197;-78
2021/11/29 08:01:28;;;;;;;12.87;11.23;;;;;;;1.32;100.00;99098.09;5084544;28;20220;-78
2021/11/29 08:03:55;;;;;;;10.17;8.97;;;;;;;1.31;100.00;99095.53;5086921;28;20270;-77
2021/11/29 08:06:22;;;;;;;8.83;8.03;;;;;;;1.27;100.00;99102.41;5084919;28;20200;-78
2021/11/29 08:08:49;;;;;;;9.53;8.57;;;;;;;1.36;100.00;99110.06;5084527;28;20213;-78
2021/11/29 08:11:15;;;;;;;9.93;8.93;;;;;;;1.53;100.00;99122.03;5084666;28;20238;-77
2021/11/29 08:13:42;;;;;;;10.50;8.93;;;;;;;1.55;100.00;99138.31;5086518;28;20735;-77
2021/11/29 08:16:09;;;;;;;8.93;8.03;;;;;;;1.52;100.00;99154.59;5083700;28;20257;-77
2021/11/29 08:18:35;;;;;;;9.50;8.60;;;;;;;1.45;100.00;99159.75;5085382;28;20222;-78
2021/11/29 08:21:01;;;;;;;9.47;8.47;;;;;;;1.34;100.00;99163.22;5084084;28;20209;-77
2021/11/29 08:23:29;;;;;;;9.63;8.80;;;;;;;1.42;100.00;99157.19;5084189;28;20220;-78
2021/11/29 08:25:55;;;;;;;10.20;7.87;;;;;;;1.37;100.00;99175.22;5085160;28;20192;-77
2021/11/29 08:28:22;;;;;;;9.07;8.13;;;;;;;1.44;100.00;99186.34;5083125;28;20201;-78
2021/11/29 08:30:48;;;;;;;9.87;8.23;;;;;;;1.50;100.00;99179.44;5084572;28;20197;-76
2021/11/29 08:33:15;;;;;;;9.23;8.33;;;;;;;1.37;100.00;99186.34;5083995;28;20596;-77
2021/11/29 08:35:42;;;;;;;9.23;8.43;;;;;;;1.38;100.00;99189.78;5084007;28;20197;-78
2021/11/29 08:38:09;;;;;;;9.03;8.13;;;;;;;1.38;100.00;99194.91;5083964;28;20605;-78
2021/11/29 08:40:37;;;;;;;8.93;8.13;;;;;;;1.21;100.00;99194.06;5084771;28;20193;-78
2021/11/29 08:43:07;;;;;;;9.83;8.83;;;;;;;1.22;100.00;99196.66;5086161;28;20216;-78
2021/11/29 08:45:33;;;;;;;10.00;9.10;;;;;;;1.28;100.00;99176.06;5084455;28;20282;-78
2021/11/29 08:48:02;;;;;;;12.47;8.73;;;;;;;1.28;100.00;99168.38;5085865;28;20616;-79
2021/11/29 08:50:28;;;;;;;11.03;9.67;;;;;;;1.32;100.00;99179.50;5084902;28;20218;-78
2021/11/29 08:52:54;;;;;;;9.63;8.73;;;;;;;1.43;100.00;99172.63;5083615;28;20224;-78
2021/11/29 08:55:21;;;;;;;10.13;8.53;;;;;;;1.52;100.00;99185.44;5084208;28;20196;-78
2021/11/29 08:57:48;;;;;;;9.50;8.60;;;;;;;1.57;100.00;99195.75;5084170;28;20201;-79
2021/11/29 09:00:17;;;;;;;9.83;8.93;;;;;;;1.60;100.00;99206.00;5086772;28;20246;-78
2021/11/29 09:02:45;;;;;;;11.10;8.87;;;;;;;1.69;100.00;99221.41;5083085;28;20641;-79
2021/11/29 09:05:12;;;;;;;9.47;8.30;;;;;;;1.59;100.00;99227.44;5085326;28;20609;-78
2021/11/29 09:07:38;;;;;;;9.13;8.23;;;;;;;1.58;100.00;99233.44;5086047;28;20204;-78
2021/11/29 09:10:08;;;;;;;10.43;8.73;;;;;;;1.68;100.00;99240.28;5083574;28;20270;-79
2021/11/29 09:12:36;;;;;;;9.97;8.70;;;;;;;1.67;100.00;99242.88;5083536;28;20645;-75
2021/11/29 09:15:05;;;;;;;10.47;9.37;;;;;;;1.75;100.00;99248.84;5083460;28;20249;-77
2021/11/29 09:17:31;;;;;;;10.37;9.37;;;;;;;1.75;100.00;99249.69;5083952;28;20204;-78
2021/11/29 09:19:58;;;;;;;11.60;10.00;;;;;;;1.81;100.00;99251.41;5082821;28;20211;-80
2021/11/29 09:22:25;;;;;;;10.73;9.73;;;;;;;1.77;100.00;99253.13;5082655;28;20220;-79
2021/11/29 09:24:52;;;;;;;10.67;9.57;;;;;;;1.83;100.00;99251.41;5084215;28;20620;-77
2021/11/29 09:27:18;;;;;;;12.33;8.97;;;;;;;1.93;100.00;99255.66;5086078;28;20189;-78
2021/11/29 09:29:49;;;;;;;9.77;8.80;;;;;;;1.82;100.00;99271.09;5083304;28;20642;-78
2021/11/29 09:32:18;;;;;;;10.10;9.10;;;;;;;1.79;100.00;99266.84;5083317;28;20216;-79
2021/11/29 09:34:44;;;;;;;10.20;9.07;;;;;;;1.90;100.00;99269.41;5082796;28;20201;-78
2021/11/29 09:37:10;;;;;;;9.57;8.67;;;;;;;1.94;100.00;99277.94;5083447;28;20199;-77
2021/11/29 09:39:37;;;;;;;15.07;9.57;;;;;;;1.93;100.00;99289.09;5084621;28;20254;-79
2021/11/29 09:42:04;;;;;;;9.23;8.00;;;;;;;1.84;100.00;99307.97;5084796;28;20644;-77
2021/11/29 09:44:30;;;;;;;8.60;7.70;;;;;;;1.96;100.00;99307.09;5084882;28;20193;-77
2021/11/29 09:46:57;;;;;;;9.17;8.33;;;;;;;1.98;100.00;99313.97;5082738;28;20218;-78
2021/11/29 09:49:28;;;;;;;9.33;8.33;;;;;;;2.06;100.00;99310.50;5083089;28;20640;-76
2021/11/29 09:51:58;;;;;;;9.53;8.63;;;;;;;2.04;100.00;99327.66;5082285;28;20659;-77
2021/11/29 09:54:24;;;;;;;9.13;7.93;;;;;;;2.03;100.00;99320.81;5083618;28;20203;-79
2021/11/29 09:56:53;;;;;;;10.87;9.23;;;;;;;1.99;100.00;99318.25;5081860;28;20261;-77
2021/11/29 09:59:23;;;;;;;9.57;8.67;;;;;;;1.89;100.00;99324.28;5082440;28;20204;-78
2021/11/29 10:01:49;;;;;;;11.30;9.27;;;;;;;1.93;100.00;99322.56;5082025;28;20224;-77
2021/11/29 10:04:16;;;;;;;10.10;9.10;;;;;;;2.09;100.00;99329.38;5083035;28;20200;-77
2021/11/29 10:06:45;;;;;;;10.23;9.27;;;;;;;2.05;100.00;99332.81;5081040;28;20200;-78
2021/11/29 10:09:28;;;;;;;12.17;9.40;;;;;;;1.84;100.00;99335.44;5082631;28;20212;-78
2021/11/29 10:11:59;;;;;;;13.10;10.60;;;;;;;1.96;100.00;99327.69;5083421;28;20307;-79
2021/11/29 10:14:25;;;;;;;13.67;10.37;;;;;;;1.84;100.00;99323.41;5081482;28;20201;-77
2021/11/29 10:16:59;;;;;;;13.00;10.57;;;;;;;2.02;100.00;99321.66;5082080;28;20671;-79
2021/11/29 10:19:34;;;;;;;10.57;9.47;;;;;;;2.10;100.00;99325.97;5083123;28;20193;-79
2021/11/29 10:22:14;;;;;;;10.87;9.77;;;;;;;2.15;100.00;99343.97;5081292;28;20220;-77
2021/11/29 10:24:40;;;;;;;12.73;10.70;;;;;;;2.04;100.00;99350.84;5081566;28;20215;-78
2021/11/29 10:27:07;;;;;;;14.57;10.83;;;;;;;2.02;100.00;99355.13;5084887;28;20199;-79
2021/11/29 10:29:33;;;;;;;10.93;9.83;;;;;;;2.06;100.00;99354.25;5082963;28;20639;-78
2021/11/29 10:32:00;;;;;;;11.60;10.27;;;;;;;2.06;100.00;99355.16;5081732;28;20232;-78
2021/11/29 10:34:29;;;;;;;15.83;10.73;;;;;;;2.09;100.00;99359.41;5083681;28;20200;-79
2021/11/29 10:36:58;;;;;;;30.00;17.83;;;;;;;1.96;100.00;99380.03;5083198;28;20246;-78
2021/11/29 10:39:31;;;;;;;11.57;10.33;;;;;;;2.10;100.00;99379.13;5082447;28;20197;-78
2021/11/29 10:42:00;;;;;;;10.83;9.73;;;;;;;2.16;100.00;99377.44;5087241;28;20285;-78
2021/11/29 10:44:29;;;;;;;12.50;9.67;;;;;;;2.19;99.27;99392.84;5086936;28;20197;-78
2021/11/29 10:46:58;;;;;;;11.63;9.50;;;;;;;2.26;99.66;99404.00;5082967;28;20219;-78
2021/11/29 10:49:27;;;;;;;11.70;9.77;;;;;;;2.26;98.88;99422.03;5082774;28;20242;-78
2021/11/29 10:51:56;;;;;;;12.40;9.53;;;;;;;2.36;98.78;99428.88;5083930;28;20217;-78
2021/11/29 10:54:25;;;;;;;11.97;10.37;;;;;;;2.29;98.87;99434.03;5083046;28;20200;-78
2021/11/29 10:56:55;;;;;;;14.30;9.87;;;;;;;2.26;98.54;99441.75;5082500;28;20208;-77
2021/11/29 10:59:25;;;;;;;10.73;9.53;;;;;;;2.27;98.25;99453.78;5082221;28;20189;-78
2021/11/29 11:01:53;;;;;;;11.27;10.13;;;;;;;2.19;98.32;99449.47;5084933;28;20217;-80
2021/11/29 11:04:23;;;;;;;11.53;9.97;;;;;;;2.11;98.81;99442.63;5088269;28;20200;-77
2021/11/29 11:06:52;;;;;;;10.80;9.70;;;;;;;2.01;100.00;99413.47;5087356;28;20724;-79
2021/11/29 11:09:21;;;;;;;11.73;10.43;;;;;;;2.11;100.00;99409.19;5087146;28;20231;-78
2021/11/29 11:11:50;;;;;;;14.93;10.50;;;;;;;2.15;99.72;99406.59;5089142;28;20305;-78
2021/11/29 11:14:20;;;;;;;15.73;9.70;;;;;;;2.28;99.38;99409.13;5088477;28;20193;-80
2021/11/29 11:16:54;;;;;;;13.53;10.00;;;;;;;2.21;99.32;99428.91;5088243;28;20219;-78
2021/11/29 11:19:33;;;;;;;13.70;10.50;;;;;;;2.27;98.92;99441.75;5086306;28;20294;-78
2021/11/29 11:22:02;;;;;;;9.87;8.83;;;;;;;2.27;97.93;99457.19;5085941;28;20216;-78
2021/11/29 11:24:32;;;;;;;11.57;9.63;;;;;;;2.39;98.24;99475.22;5087757;28;20192;-78
2021/11/29 11:27:00;;;;;;;10.73;9.63;;;;;;;2.36;97.34;99488.09;5089604;28;20710;-78
2021/11/29 11:29:43;;;;;;;10.97;9.83;;;;;;;2.41;97.62;99488.09;5085512;28;20217;-79
2021/11/29 11:32:12;;;;;;;12.27;9.87;;;;;;;2.47;98.07;99484.66;5087714;28;20221;-79
2021/11/29 11:34:40;;;;;;;10.03;9.03;;;;;;;2.50;97.48;99497.53;5086345;28;20686;-77